Time;durP1;ratioP1;P1;durP2;ratioP2;P2;SDS_P1;SDS_P2;PMS_P1;PMS_P2;Temp;Humidity;BMP_temperature;BMP_pressure;BME280_temperature;BME280_humidity;BME280_pressure;Samples;Min_cycle;Max_cycle;Signal;HPM_P1;HPM_P2
2022/04/16 00:00:59;;;;;;;47.45;42.72;;;6.30;99.90;7.10;98076.00;;;;4631466;30;89153;-62
2022/04/16 00:03:25;;;;;;;51.35;46.15;;;6.40;99.90;7.10;98079.00;;;;4635316;30;88801;-63
2022/04/16 00:05:54;;;;;;;47.95;43.08;;;6.40;99.90;7.10;98083.00;;;;4629839;30;86816;-63
2022/04/16 00:08:23;;;;;;;51.67;46.75;;;6.40;99.90;7.10;98076.00;;;;4630555;30;87098;-63
2022/04/16 00:10:50;;;;;;;53.78;48.38;;;6.40;99.90;7.20;98082.00;;;;4631028;30;88585;-62
2022/04/16 00:13:18;;;;;;;55.10;49.45;;;6.40;99.90;7.20;98077.00;;;;4640296;30;88938;-62
2022/04/16 00:15:46;;;;;;;57.13;51.42;;;6.50;99.90;7.20;98080.00;;;;4630494;30;87228;-62
2022/04/16 00:18:13;;;;;;;51.95;46.80;;;6.50;99.90;7.20;98077.00;;;;4630604;30;87166;-62
2022/04/16 00:20:40;;;;;;;55.60;49.83;;;6.50;99.90;7.20;98093.00;;;;4629927;30;88585;-62
2022/04/16 00:23:08;;;;;;;55.97;49.80;;;6.50;99.90;7.20;98089.00;;;;4631119;30;87379;-63
2022/04/16 00:25:34;;;;;;;57.15;51.45;;;6.50;99.90;7.20;98075.00;;;;4637522;30;86906;-62
2022/04/16 00:28:02;;;;;;;60.33;54.33;;;6.50;99.90;7.20;98078.00;;;;4630900;30;87325;-63
2022/04/16 00:30:30;;;;;;;57.83;52.05;;;6.50;99.90;7.20;98074.00;;;;4630932;30;88010;-63
2022/04/16 00:32:57;;;;;;;57.25;51.42;;;6.50;99.90;7.20;98075.00;;;;4629729;30;87091;-62
2022/04/16 00:35:23;;;;;;;60.75;54.67;;;6.50;99.90;7.30;98080.00;;;;4630202;30;87062;-63
2022/04/16 00:37:51;;;;;;;59.50;53.72;;;6.50;99.90;7.30;98073.00;;;;4632773;30;87810;-62
2022/04/16 00:40:17;;;;;;;60.70;54.45;;;6.50;99.90;7.30;98067.00;;;;4633848;30;87459;-63
2022/04/16 00:42:46;;;;;;;60.13;54.55;;;6.50;99.90;7.30;98070.00;;;;4633432;30;87553;-62
2022/04/16 00:45:13;;;;;;;58.83;53.13;;;6.50;99.90;7.30;98071.00;;;;4632906;30;87187;-62
2022/04/16 00:47:40;;;;;;;59.28;53.70;;;6.50;99.90;7.30;98073.00;;;;4633610;30;87190;-63
2022/04/16 00:50:09;;;;;;;63.38;56.92;;;6.50;99.90;7.30;98067.00;;;;4633749;30;87529;-63
2022/04/16 00:52:40;;;;;;;63.13;56.63;;;6.50;99.90;7.30;98064.00;;;;4633557;30;87525;-62
2022/04/16 00:55:08;;;;;;;64.65;57.92;;;6.50;99.90;7.30;98064.00;;;;4634248;30;86479;-63
2022/04/16 00:57:39;;;;;;;62.80;56.50;;;6.50;99.90;7.30;98068.00;;;;4633028;30;87346;-63
2022/04/16 01:00:09;;;;;;;61.90;55.83;;;6.50;99.90;7.30;98065.00;;;;4633889;30;87669;-64
2022/04/16 01:02:40;;;;;;;67.50;60.65;;;6.60;99.90;7.30;98065.00;;;;4638998;30;88485;-63
2022/04/16 01:05:07;;;;;;;65.78;59.42;;;6.50;99.90;7.30;98068.00;;;;4638619;30;86902;-63
2022/04/16 01:07:34;;;;;;;66.18;59.70;;;6.60;99.90;7.30;98059.00;;;;4633102;30;87527;-63
2022/04/16 01:10:00;;;;;;;66.75;59.92;;;6.60;99.90;7.30;98060.00;;;;4632430;30;88631;-63
2022/04/16 01:12:26;;;;;;;66.82;60.17;;;6.50;99.90;7.30;98064.00;;;;4643224;30;87602;-63
2022/04/16 01:14:56;;;;;;;71.68;64.28;;;6.50;99.90;7.30;98070.00;;;;4631539;30;86981;-63
2022/04/16 01:17:23;;;;;;;72.38;64.85;;;6.50;99.90;7.30;98062.00;;;;4632486;30;87264;-63
2022/04/16 01:19:49;;;;;;;71.57;64.05;;;6.50;99.90;7.30;98063.00;;;;4633050;30;86992;-63
2022/04/16 01:22:15;;;;;;;70.13;62.80;;;6.50;99.90;7.20;98061.00;;;;4633014;30;87757;-64
2022/04/16 01:24:43;;;;;;;72.60;65.03;;;6.50;99.90;7.20;98067.00;;;;4638804;30;87377;-63
2022/04/16 01:27:10;;;;;;;73.65;65.57;;;6.50;99.90;7.20;98056.00;;;;4631611;30;88166;-63
2022/04/16 01:29:37;;;;;;;75.45;67.20;;;6.40;99.90;7.20;98068.00;;;;4632130;30;89174;-63
2022/04/16 01:32:05;;;;;;;76.90;68.57;;;6.40;99.90;7.20;98075.00;;;;4631651;30;88738;-63
2022/04/16 01:34:32;;;;;;;77.57;67.85;;;6.40;99.90;7.10;98062.00;;;;4632426;30;87044;-63
2022/04/16 01:37:02;;;;;;;76.63;67.10;;;6.30;99.90;7.10;98061.00;;;;4632981;30;87037;-63
2022/04/16 01:39:30;;;;;;;76.78;68.57;;;6.30;99.90;7.10;98055.00;;;;4632493;30;89604;-63
2022/04/16 01:41:58;;;;;;;82.65;71.80;;;6.30;99.90;7.10;98063.00;;;;4631189;30;89011;-63
2022/04/16 01:44:25;;;;;;;76.97;68.22;;;6.30;99.90;7.10;98060.00;;;;4633673;30;86474;-63
2022/04/16 01:46:51;;;;;;;83.55;72.18;;;6.30;99.90;7.10;98055.00;;;;4617574;30;87136;-62
2022/04/16 01:49:20;;;;;;;92.03;74.05;;;6.30;99.90;7.00;98063.00;;;;4630904;30;89398;-62
2022/04/16 01:51:48;;;;;;;94.30;75.10;;;6.30;99.90;7.00;98069.00;;;;4631100;30;88524;-63
2022/04/16 01:54:15;;;;;;;92.00;72.63;;;6.20;99.90;6.90;98051.00;;;;4632888;30;86989;-63
2022/04/16 01:56:41;;;;;;;110.68;82.03;;;6.20;99.90;7.00;98066.00;;;;4632406;30;87146;-63
2022/04/16 01:59:11;;;;;;;92.20;75.45;;;6.20;99.90;7.00;98060.00;;;;4631883;30;87665;-63
2022/04/16 02:01:37;;;;;;;85.30;71.10;;;6.10;99.90;6.90;98064.00;;;;4632584;30;87206;-63
2022/04/16 02:04:04;;;;;;;83.03;68.50;;;6.10;99.90;6.80;98073.00;;;;4637349;30;87450;-63
2022/04/16 02:06:30;;;;;;;70.22;61.40;;;6.00;99.90;6.70;98074.00;;;;4629761;30;88814;-63
2022/04/16 02:08:56;;;;;;;67.50;60.45;;;6.00;99.90;6.60;98059.00;;;;4629436;30;87079;-63
2022/04/16 02:11:22;;;;;;;71.20;62.83;;;5.90;99.90;6.60;98076.00;;;;4632049;30;87546;-63
2022/04/16 02:13:48;;;;;;;77.32;68.93;;;5.90;99.90;6.60;98058.00;;;;4627391;30;87349;-63
2022/04/16 02:16:15;;;;;;;66.68;59.38;;;5.90;99.90;6.60;98071.00;;;;4630466;30;88547;-63
2022/04/16 02:18:41;;;;;;;65.47;58.70;;;5.80;99.90;6.50;98075.00;;;;4635268;30;88664;-63
2022/04/16 02:21:10;;;;;;;56.05;50.47;;;5.80;99.90;6.40;98074.00;;;;4633152;30;88479;-63
2022/04/16 02:23:37;;;;;;;54.83;49.35;;;5.70;99.90;6.40;98083.00;;;;4632889;30;87577;-62
2022/04/16 02:26:06;;;;;;;54.63;49.05;;;5.70;99.90;6.30;98077.00;;;;4639416;30;87468;-63
2022/04/16 02:28:33;;;;;;;42.50;38.50;;;5.60;99.90;6.20;98079.00;;;;4631552;30;87692;-62
2022/04/16 02:31:00;;;;;;;44.90;40.65;;;5.60;99.90;6.20;98078.00;;;;4631415;30;87543;-63
2022/04/16 02:33:27;;;;;;;42.95;39.03;;;5.50;99.90;6.10;98075.00;;;;4631693;30;86174;-62
2022/04/16 02:35:53;;;;;;;36.80;33.65;;;5.50;99.90;6.00;98084.00;;;;4630993;30;87031;-63
2022/04/16 02:38:19;;;;;;;33.40;30.60;;;5.40;99.90;5.80;98094.00;;;;4631717;30;87786;-63
2022/04/16 02:40:46;;;;;;;26.55;24.35;;;5.20;99.90;5.60;98095.00;;;;4630566;30;88062;-63
2022/04/16 02:43:13;;;;;;;30.35;27.73;;;5.10;99.90;5.50;98106.00;;;;4630143;30;87014;-63
2022/04/16 02:48:23;;;;;;;27.80;25.50;;;4.90;99.90;5.40;98111.00;;;;4630577;30;88763;-63
2022/04/16 02:50:50;;;;;;;31.85;29.25;;;4.80;99.90;5.30;98116.00;;;;4631558;30;87546;-63
2022/04/16 02:53:16;;;;;;;30.30;27.85;;;4.80;99.90;5.30;98097.00;;;;4631716;30;87016;-63
2022/04/16 02:55:46;;;;;;;31.08;28.58;;;4.70;99.90;5.20;98103.00;;;;4631660;30;87056;-63
2022/04/16 02:58:13;;;;;;;30.25;27.88;;;4.60;99.90;5.10;98095.00;;;;4632179;30;86843;-63
2022/04/16 03:00:41;;;;;;;25.52;23.52;;;4.50;99.90;5.10;98111.00;;;;4631778;30;87024;-63
2022/04/16 03:03:08;;;;;;;22.92;21.05;;;4.40;99.90;4.90;98103.00;;;;4632966;30;86943;-62
2022/04/16 03:05:35;;;;;;;21.20;19.50;;;4.30;99.90;4.80;98095.00;;;;4631205;30;88318;-63
2022/04/16 03:08:01;;;;;;;22.48;20.67;;;4.30;99.90;4.70;98108.00;;;;4631545;30;87650;-63
2022/04/16 03:10:28;;;;;;;18.90;17.20;;;4.20;99.90;4.50;98114.00;;;;4631127;30;87537;-63
2022/04/16 03:12:55;;;;;;;18.20;16.77;;;4.00;99.90;4.50;98115.00;;;;4635141;30;87055;-63
2022/04/16 03:18:09;;;;;;;16.70;15.23;;;3.90;99.90;4.40;98130.00;;;;4629175;30;88737;-63
2022/04/16 03:20:37;;;;;;;19.92;18.20;;;3.80;99.90;4.30;98115.00;;;;4631087;30;87532;-63
2022/04/16 03:23:03;;;;;;;16.98;15.63;;;3.80;99.90;4.30;98113.00;;;;4631988;30;86274;-62
2022/04/16 03:25:30;;;;;;;14.80;13.70;;;3.70;99.90;4.10;98121.00;;;;4632086;30;87011;-64
2022/04/16 03:27:58;;;;;;;15.70;14.40;;;3.60;99.90;4.00;98116.00;;;;4631262;30;88688;-63
2022/04/16 03:30:25;;;;;;;16.77;15.38;;;3.60;99.90;4.00;98144.00;;;;4629174;30;88028;-64
2022/04/16 03:32:52;;;;;;;15.23;14.02;;;3.50;99.90;3.90;98123.00;;;;4630189;30;87321;-63
2022/04/16 03:35:21;;;;;;;16.15;14.82;;;3.40;99.90;3.80;98119.00;;;;4631004;30;87729;-62
2022/04/16 03:37:47;;;;;;;16.77;15.48;;;3.30;99.90;3.70;98125.00;;;;4631253;30;87701;-65
2022/04/16 03:40:14;;;;;;;16.27;14.88;;;3.30;99.90;3.70;98124.00;;;;4631584;30;87487;-63
2022/04/16 03:42:52;;;;;;;17.10;15.70;;;3.20;99.90;3.70;98142.00;;;;4630538;30;87579;-64
2022/04/16 03:45:22;;;;;;;13.82;12.70;;;3.20;99.90;3.60;98158.00;;;;4629893;30;87205;-63
2022/04/16 03:47:49;;;;;;;17.10;15.70;;;3.10;99.90;3.60;98134.00;;;;4631658;30;86378;-64
2022/04/16 03:50:17;;;;;;;16.63;15.30;;;3.10;99.90;3.50;98150.00;;;;4630819;30;87045;-62
2022/04/16 03:52:46;;;;;;;16.13;14.75;;;3.00;99.90;3.50;98135.00;;;;4631347;30;87030;-64
2022/04/16 04:00:54;;;;;;;11.60;10.60;;;2.90;99.90;3.40;98123.00;;;;4628678;30;87502;-63
2022/04/16 04:03:21;;;;;;;12.10;11.10;;;2.90;99.90;3.20;98168.00;;;;4631640;30;87429;-63
2022/04/16 04:05:49;;;;;;;11.45;10.48;;;2.80;99.90;3.20;98144.00;;;;4630844;30;87087;-64
2022/04/16 04:08:16;;;;;;;9.35;8.63;;;2.70;99.90;3.20;98149.00;;;;4630836;30;88148;-63
2022/04/16 04:10:43;;;;;;;11.00;10.10;;;2.70;99.90;3.10;98147.00;;;;4631063;30;88713;-64
2022/04/16 04:13:09;;;;;;;8.82;8.13;;;2.70;99.90;3.10;98141.00;;;;4638698;30;86312;-63
2022/04/16 04:15:36;;;;;;;10.13;9.32;;;2.60;99.90;3.00;98154.00;;;;4634418;30;87435;-63
2022/04/16 04:18:03;;;;;;;7.93;7.22;;;2.50;99.90;2.90;98156.00;;;;4634176;30;87972;-64
2022/04/16 04:20:30;;;;;;;9.15;8.27;;;2.40;99.90;2.80;98156.00;;;;4633725;30;88293;-63
2022/04/16 04:22:56;;;;;;;7.93;7.28;;;2.40;99.90;2.80;98166.00;;;;4634284;30;87341;-63
2022/04/16 04:25:23;;;;;;;8.07;7.40;;;2.40;99.90;2.70;98166.00;;;;4634258;30;87009;-64
2022/04/16 04:27:49;;;;;;;7.18;6.57;;;2.30;99.90;2.70;98161.00;;;;4632879;30;88727;-63
2022/04/16 04:30:16;;;;;;;7.50;6.80;;;2.20;99.90;2.70;98158.00;;;;4632873;30;87678;-63
2022/04/16 04:32:42;;;;;;;7.35;6.68;;;2.20;99.90;2.60;98176.00;;;;4633706;30;87195;-63
2022/04/16 04:35:09;;;;;;;6.35;5.75;;;2.20;99.90;2.70;98175.00;;;;4633472;30;86995;-61
2022/04/16 04:37:36;;;;;;;6.10;5.60;;;2.20;99.90;2.70;98196.00;;;;4634283;30;87215;-60
2022/04/16 04:40:03;;;;;;;5.53;5.13;;;2.20;99.90;2.70;98184.00;;;;4618514;30;90126;-59
2022/04/16 04:42:32;;;;;;;5.63;5.22;;;2.20;99.90;2.70;98190.00;;;;4634242;30;87464;-59
2022/04/16 04:44:59;;;;;;;5.50;5.10;;;2.20;99.90;2.70;98178.00;;;;4634001;30;88426;-59
2022/04/16 04:47:25;;;;;;;4.95;4.55;;;2.20;99.90;2.60;98196.00;;;;4632986;30;87720;-59
2022/04/16 04:49:51;;;;;;;4.50;4.10;;;2.20;99.90;2.60;98192.00;;;;4633466;30;87742;-59
2022/04/16 04:52:26;;;;;;;4.40;4.10;;;2.20;99.90;2.60;98224.00;;;;4634567;30;87338;-59
2022/04/16 04:54:53;;;;;;;4.70;4.30;;;2.10;99.90;2.50;98200.00;;;;4634079;30;88032;-59
2022/04/16 04:57:20;;;;;;;4.78;3.97;;;2.10;99.90;2.40;98225.00;;;;4633864;30;87555;-59
2022/04/16 04:59:46;;;;;;;4.40;3.55;;;2.10;99.90;2.40;98207.00;;;;4633724;30;87197;-59
2022/04/16 05:02:12;;;;;;;3.72;3.42;;;2.00;99.90;2.30;98201.00;;;;4638236;30;86748;-58
2022/04/16 05:04:38;;;;;;;3.00;2.80;;;2.00;99.90;2.30;98229.00;;;;4645066;30;87280;-59
2022/04/16 05:07:05;;;;;;;2.50;2.30;;;1.90;99.90;2.30;98208.00;;;;4633400;30;87833;-59
2022/04/16 05:09:31;;;;;;;2.50;2.30;;;1.90;99.90;2.20;98208.00;;;;4633064;30;88572;-58
2022/04/16 05:11:58;;;;;;;2.55;2.35;;;1.90;99.90;2.30;98236.00;;;;4633564;30;87340;-60
2022/04/16 05:14:24;;;;;;;2.30;2.10;;;1.90;99.90;2.30;98228.00;;;;4635408;30;88380;-58
2022/04/16 05:16:50;;;;;;;2.25;2.00;;;1.90;99.90;2.20;98219.00;;;;4632348;30;88912;-58
2022/04/16 05:19:16;;;;;;;2.20;2.00;;;1.90;99.90;2.30;98223.00;;;;4633796;30;87271;-59
2022/04/16 05:21:43;;;;;;;2.83;2.60;;;1.90;99.90;2.30;98219.00;;;;4634912;30;88029;-60
2022/04/16 05:24:10;;;;;;;2.40;2.20;;;1.90;99.90;2.30;98245.00;;;;4638088;30;87118;-59
2022/04/16 05:26:40;;;;;;;2.58;2.38;;;1.90;99.90;2.20;98222.00;;;;4638358;30;87153;-59
2022/04/16 05:29:07;;;;;;;2.92;2.72;;;1.90;99.90;2.30;98230.00;;;;4633603;30;86986;-59
2022/04/16 05:31:34;;;;;;;2.60;2.40;;;1.90;99.90;2.30;98223.00;;;;4632566;30;87162;-59
2022/04/16 05:34:19;;;;;;;2.38;2.17;;;1.90;99.90;2.30;98202.00;;;;4631932;30;88439;-59
2022/04/16 05:36:48;;;;;;;2.50;2.30;;;1.90;99.90;2.30;98218.00;;;;4632535;30;88254;-58
2022/04/16 05:39:16;;;;;;;2.90;2.70;;;1.90;99.90;2.40;98226.00;;;;4633803;30;87321;-59
2022/04/16 05:41:42;;;;;;;2.40;2.20;;;1.90;99.90;2.40;98213.00;;;;4632280;30;87173;-59
2022/04/16 05:44:08;;;;;;;2.80;2.60;;;1.90;99.90;2.40;98218.00;;;;4633307;30;87272;-59
2022/04/16 05:46:34;;;;;;;2.72;2.53;;;2.00;99.90;2.40;98229.00;;;;4632158;30;88076;-59
2022/04/16 05:49:00;;;;;;;2.45;2.15;;;2.00;99.90;2.60;98215.00;;;;4633147;30;88166;-59
2022/04/16 05:51:27;;;;;;;2.88;2.17;;;2.00;99.90;2.50;98218.00;;;;4633203;30;86544;-59
2022/04/16 05:53:54;;;;;;;2.22;2.03;;;2.10;99.90;2.60;98228.00;;;;4632018;30;87431;-59
2022/04/16 05:56:21;;;;;;;2.28;2.03;;;2.10;99.90;2.50;98247.00;;;;4631105;30;88232;-59
2022/04/16 05:58:47;;;;;;;2.08;1.40;;;2.10;99.90;2.50;98251.00;;;;4632137;30;88329;-59
2022/04/16 06:01:14;;;;;;;1.40;1.30;;;2.10;99.90;2.50;98232.00;;;;4633177;30;87075;-59
2022/04/16 06:03:41;;;;;;;2.30;2.10;;;2.10;99.90;2.40;98209.00;;;;4637818;30;87427;-59
2022/04/16 06:06:08;;;;;;;2.05;1.58;;;2.10;99.90;2.60;98228.00;;;;4632823;30;88993;-60
2022/04/16 06:08:35;;;;;;;1.80;1.55;;;2.10;99.90;2.50;98239.00;;;;4646454;30;88477;-59
2022/04/16 06:11:03;;;;;;;1.70;1.60;;;2.10;99.90;2.50;98239.00;;;;4632811;30;87111;-58
2022/04/16 06:13:32;;;;;;;1.65;1.55;;;2.10;99.90;2.60;98238.00;;;;4634580;30;87248;-58
2022/04/16 06:15:59;;;;;;;2.38;1.73;;;2.10;99.90;2.70;98238.00;;;;4631565;30;87103;-60
2022/04/16 06:18:26;;;;;;;1.67;1.58;;;2.20;99.90;2.70;98233.00;;;;4632061;30;87099;-59
2022/04/16 06:20:53;;;;;;;1.48;1.38;;;2.20;99.90;2.70;98243.00;;;;4633414;30;87474;-59
2022/04/16 06:23:22;;;;;;;1.50;1.38;;;2.20;99.90;2.60;98255.00;;;;4631470;30;88079;-61
2022/04/16 06:25:49;;;;;;;1.70;1.52;;;2.20;99.90;2.70;98249.00;;;;4642418;30;87537;-59
2022/04/16 06:28:15;;;;;;;2.90;1.60;;;2.20;99.90;2.60;98244.00;;;;4632101;30;88901;-58
2022/04/16 06:30:41;;;;;;;1.83;1.73;;;2.20;99.90;2.70;98247.00;;;;4632226;30;87025;-62
2022/04/16 06:33:07;;;;;;;2.08;1.88;;;2.20;99.90;2.60;98224.00;;;;4630543;30;87162;-54
2022/04/16 06:35:34;;;;;;;1.95;1.85;;;2.10;99.90;2.60;98256.00;;;;4631358;30;88819;-55
2022/04/16 06:38:00;;;;;;;3.28;2.20;;;2.20;99.90;2.60;98233.00;;;;4637687;30;87810;-54
2022/04/16 06:40:26;;;;;;;3.10;1.92;;;2.20;99.90;2.70;98227.00;;;;4641334;30;86600;-54
2022/04/16 06:42:52;;;;;;;2.40;2.13;;;2.20;99.90;2.80;98208.00;;;;4631901;30;87053;-56
2022/04/16 06:45:21;;;;;;;2.25;2.05;;;2.30;99.90;2.90;98250.00;;;;4627962;30;87572;-51
2022/04/16 06:47:47;;;;;;;1.70;1.60;;;2.40;99.90;2.70;98257.00;;;;4631228;30;87999;-52
2022/04/16 06:50:14;;;;;;;2.70;1.67;;;2.30;99.90;2.80;98262.00;;;;4632426;30;87598;-54
2022/04/16 06:52:40;;;;;;;3.17;1.95;;;2.30;99.90;2.90;98252.00;;;;4631291;30;87199;-55
2022/04/16 06:55:07;;;;;;;1.40;1.30;;;2.40;99.90;2.80;98240.00;;;;4632486;30;88288;-56
2022/04/16 06:57:33;;;;;;;1.90;1.70;;;2.30;99.90;2.80;98282.00;;;;4632279;30;88314;-55
2022/04/16 06:59:59;;;;;;;2.13;1.67;;;2.30;99.90;2.70;98254.00;;;;4631658;30;87005;-57
2022/04/16 07:02:26;;;;;;;1.85;1.70;;;2.30;99.90;2.80;98248.00;;;;4637460;30;87415;-59
2022/04/16 07:04:52;;;;;;;2.22;2.08;;;2.30;99.90;2.80;98245.00;;;;4636250;30;87222;-60
2022/04/16 07:07:18;;;;;;;2.85;1.90;;;2.30;99.90;2.90;98261.00;;;;4630414;30;87675;-59
2022/04/16 07:09:44;;;;;;;1.83;1.48;;;2.30;99.90;2.80;98306.00;;;;4631282;30;87445;-59
2022/04/16 07:12:11;;;;;;;2.05;1.75;;;2.30;99.90;2.80;98281.00;;;;4629618;30;88185;-56
2022/04/16 07:14:39;;;;;;;2.55;1.42;;;2.30;99.90;2.70;98283.00;;;;4636513;30;87826;-59
2022/04/16 07:17:07;;;;;;;5.20;1.70;;;2.30;99.90;2.70;98318.00;;;;4631538;30;87509;-59
2022/04/16 07:19:34;;;;;;;2.08;1.80;;;2.30;99.90;2.70;98316.00;;;;4629608;30;87371;-57
2022/04/16 07:22:01;;;;;;;4.28;1.67;;;2.30;99.90;2.70;98310.00;;;;4631269;30;87207;-59
2022/04/16 07:24:27;;;;;;;1.70;1.60;;;2.30;99.90;2.70;98314.00;;;;4636142;30;87636;-58
2022/04/16 07:26:55;;;;;;;2.92;1.80;;;2.20;99.90;2.70;98313.00;;;;4631136;30;88274;-56
2022/04/16 07:29:25;;;;;;;3.78;1.85;;;2.30;99.90;2.70;98327.00;;;;4631887;30;86880;-59
2022/04/16 07:31:51;;;;;;;2.13;1.75;;;2.30;99.90;2.60;98339.00;;;;4643607;30;87415;-59
2022/04/16 07:34:18;;;;;;;3.13;1.58;;;2.20;99.90;2.60;98325.00;;;;4630169;30;87680;-59
2022/04/16 07:36:45;;;;;;;2.65;1.80;;;2.10;99.90;2.60;98319.00;;;;4628943;30;88263;-59
2022/04/16 07:39:12;;;;;;;2.38;1.73;;;2.20;99.90;2.60;98335.00;;;;4628523;30;87355;-59
2022/04/16 07:41:39;;;;;;;1.98;1.80;;;2.20;99.90;2.60;98330.00;;;;4629337;30;87269;-59
2022/04/16 07:44:06;;;;;;;2.35;2.15;;;2.10;99.90;2.60;98314.00;;;;4632124;30;87604;-60
2022/04/16 07:46:34;;;;;;;2.25;1.90;;;2.10;99.90;2.60;98330.00;;;;4630773;30;87878;-60
2022/04/16 07:49:01;;;;;;;2.28;1.90;;;2.10;99.90;2.60;98332.00;;;;4633261;30;87365;-59
2022/04/16 07:51:29;;;;;;;2.40;2.20;;;2.10;99.90;2.60;98345.00;;;;4633030;30;87303;-61
2022/04/16 07:53:56;;;;;;;2.10;1.90;;;2.20;99.90;2.60;98336.00;;;;4634089;30;88503;-61
2022/04/16 07:56:23;;;;;;;2.63;2.13;;;2.20;99.90;2.60;98350.00;;;;4634366;30;87398;-59
2022/04/16 07:58:50;;;;;;;2.75;2.00;;;2.10;99.90;2.50;98339.00;;;;4638797;30;87530;-59
2022/04/16 08:01:17;;;;;;;3.75;2.20;;;2.10;99.90;2.60;98342.00;;;;4635286;30;87982;-59
2022/04/16 08:03:44;;;;;;;2.50;2.30;;;2.20;99.90;2.60;98348.00;;;;4643562;30;87416;-58
2022/04/16 08:06:10;;;;;;;3.67;2.28;;;2.20;99.90;2.60;98320.00;;;;4635231;30;89319;-59
2022/04/16 08:08:37;;;;;;;2.50;2.30;;;2.20;99.90;2.60;98349.00;;;;4635000;30;86985;-56
2022/04/16 08:11:04;;;;;;;2.58;2.38;;;2.20;99.90;2.60;98343.00;;;;4634403;30;87359;-59
2022/04/16 08:13:30;;;;;;;2.65;2.45;;;2.20;99.90;2.60;98339.00;;;;4634027;30;87371;-60
2022/04/16 08:15:56;;;;;;;2.42;2.10;;;2.20;99.90;2.60;98349.00;;;;4634336;30;87299;-60
2022/04/16 08:18:22;;;;;;;2.33;2.08;;;2.20;99.90;2.60;98349.00;;;;4633645;30;86791;-59
2022/04/16 08:20:48;;;;;;;2.80;2.10;;;2.20;99.90;2.50;98374.00;;;;4633869;30;86989;-62
2022/04/16 08:23:15;;;;;;;2.28;2.08;;;2.10;99.90;2.50;98343.00;;;;4632567;30;87631;-60
2022/04/16 08:28:08;;;;;;;3.40;2.20;;;2.10;99.90;2.50;98354.00;;;;4633580;30;86984;-59
2022/04/16 08:30:35;;;;;;;3.85;2.28;;;2.10;99.90;2.60;98357.00;;;;4633977;30;87953;-58
2022/04/16 08:33:01;;;;;;;2.70;2.50;;;2.10;99.90;2.50;98380.00;;;;4632709;30;87863;-59
2022/04/16 08:35:27;;;;;;;2.67;2.40;;;2.10;99.90;2.40;98401.00;;;;4633192;30;88502;-60
2022/04/16 08:37:54;;;;;;;4.50;2.50;;;2.00;99.90;2.40;98415.00;;;;4634603;30;87089;-58
2022/04/16 08:40:20;;;;;;;2.80;2.60;;;2.00;99.90;2.30;98377.00;;;;4638964;30;87542;-59
2022/04/16 08:42:52;;;;;;;3.50;2.63;;;1.90;99.90;2.40;98360.00;;;;4636871;30;86911;-61
2022/04/16 08:45:18;;;;;;;2.97;2.70;;;2.00;99.90;2.50;98368.00;;;;4630535;30;87414;-59
2022/04/16 08:47:44;;;;;;;4.20;2.40;;;2.00;99.90;2.40;98403.00;;;;4636952;30;87015;-61
2022/04/16 08:50:13;;;;;;;2.92;2.63;;;2.00;99.90;2.40;98375.00;;;;4633865;30;88323;-62
2022/04/16 08:52:40;;;;;;;2.70;2.50;;;2.00;99.90;2.40;98375.00;;;;4633401;30;88730;-63
2022/04/16 08:55:10;;;;;;;3.40;2.50;;;2.00;99.90;2.50;98376.00;;;;4633219;30;87924;-62
2022/04/16 08:57:39;;;;;;;2.90;2.43;;;2.10;99.90;2.40;98413.00;;;;4630958;30;87080;-61
2022/04/16 09:00:07;;;;;;;3.22;2.40;;;2.00;99.90;2.40;98400.00;;;;4631673;30;86973;-61
2022/04/16 09:02:33;;;;;;;2.10;1.70;;;2.00;99.90;2.30;98386.00;;;;4644625;30;88770;-61
2022/04/16 09:05:09;;;;;;;4.47;2.20;;;2.00;99.90;2.40;98398.00;;;;4644186;30;87997;-60
2022/04/16 09:07:50;;;;;;;2.72;2.53;;;2.00;99.90;2.50;98418.00;;;;4634065;30;86643;-63
2022/04/16 09:10:17;;;;;;;3.25;2.17;;;2.00;99.90;2.40;98396.00;;;;4637314;30;87114;-61
2022/04/16 09:12:45;;;;;;;2.95;2.35;;;2.00;99.90;2.50;98387.00;;;;4632739;30;87561;-60
2022/04/16 09:15:15;;;;;;;2.30;2.10;;;2.10;99.90;2.60;98375.00;;;;4633839;30;88842;-60
2022/04/16 09:17:42;;;;;;;2.17;1.80;;;2.10;99.90;2.60;98427.00;;;;4620076;30;87522;-60
2022/04/16 09:20:13;;;;;;;2.05;1.80;;;2.20;99.90;2.50;98391.00;;;;4631949;30;87360;-61
2022/04/16 09:22:41;;;;;;;2.10;1.90;;;2.10;99.90;2.50;98397.00;;;;4645040;30;87836;-61
2022/04/16 09:25:18;;;;;;;1.73;1.52;;;2.20;99.90;2.60;98401.00;;;;4633480;30;88813;-60
2022/04/16 09:27:50;;;;;;;1.85;1.70;;;2.20;99.90;2.60;98395.00;;;;4640547;30;87059;-60
2022/04/16 09:30:31;;;;;;;5.22;1.90;;;2.20;99.90;2.60;98351.00;;;;4641880;30;87503;-62
2022/04/16 09:32:59;;;;;;;1.63;1.52;;;2.30;99.90;2.70;98401.00;;;;4631076;30;88024;-60
2022/04/16 09:35:33;;;;;;;2.33;1.92;;;2.30;99.90;2.70;98396.00;;;;4631390;30;88111;-62
2022/04/16 09:38:02;;;;;;;2.47;2.10;;;2.30;99.90;2.80;98412.00;;;;4629688;30;87343;-60
2022/04/16 09:40:34;;;;;;;1.90;1.70;;;2.30;99.90;2.70;98417.00;;;;4634176;30;88627;-60
2022/04/16 09:43:04;;;;;;;;;;;2.30;99.90;2.70;98393.00;;;;4637949;30;87703;-57
2022/04/16 09:45:32;;;;;;;2.53;1.92;;;2.30;99.90;2.80;98395.00;;;;4635510;30;88011;-58
2022/04/16 09:47:59;;;;;;;2.53;1.88;;;2.40;99.90;2.80;98421.00;;;;4633084;30;87244;-60
2022/04/16 09:50:29;;;;;;;2.05;1.85;;;2.40;99.90;2.80;98413.00;;;;4632604;30;87238;-60
2022/04/16 09:52:58;;;;;;;2.90;2.13;;;2.40;99.90;2.80;98445.00;;;;4630863;30;87814;-62
2022/04/16 09:55:26;;;;;;;3.05;1.95;;;2.40;99.90;2.70;98413.00;;;;4636648;30;87374;-59
2022/04/16 09:58:06;;;;;;;2.08;1.88;;;2.40;99.90;2.80;98402.00;;;;4634150;30;86912;-60
2022/04/16 10:00:36;;;;;;;2.15;1.73;;;2.40;99.90;2.80;98431.00;;;;4632237;30;87364;-61
2022/04/16 10:03:07;;;;;;;3.67;1.90;;;2.40;99.90;2.70;98438.00;;;;4635296;30;88951;-59
2022/04/16 10:05:34;;;;;;;2.57;2.00;;;2.40;99.90;2.70;98435.00;;;;4632707;30;88539;-60
2022/04/16 10:08:01;;;;;;;2.72;2.20;;;2.40;99.90;2.90;98431.00;;;;4634600;30;87082;-61
2022/04/16 10:13:05;;;;;;;2.40;2.20;;;2.50;99.90;2.80;98462.00;;;;4637451;30;87990;-59
2022/04/16 10:15:52;;;;;;;4.35;2.45;;;2.40;99.90;2.90;98448.00;;;;4647928;30;88421;-61
2022/04/16 10:18:18;;;;;;;3.42;2.47;;;2.50;99.90;2.90;98435.00;;;;4627446;30;87486;-62
2022/04/16 10:20:58;;;;;;;2.72;2.08;;;2.50;99.90;2.90;98450.00;;;;4654326;30;87157;-60
2022/04/16 10:23:27;;;;;;;2.58;2.35;;;2.50;99.90;2.80;98464.00;;;;4644769;30;86927;-63
2022/04/16 10:26:04;;;;;;;2.53;2.15;;;2.40;99.90;2.80;98457.00;;;;4645428;30;87543;-60
2022/04/16 10:28:42;;;;;;;2.35;2.13;;;2.40;99.90;2.80;98458.00;;;;4632760;30;87222;-59
2022/04/16 10:31:28;;;;;;;2.05;1.80;;;2.40;99.90;2.90;98449.00;;;;4633473;30;88259;-60
2022/04/16 10:34:11;;;;;;;2.20;2.00;;;2.50;99.90;2.90;98499.00;;;;4632465;30;88387;-60
2022/04/16 10:36:55;;;;;;;2.28;2.00;;;2.50;99.90;2.80;98461.00;;;;4633447;30;87419;-58
2022/04/16 10:39:31;;;;;;;3.50;2.22;;;2.40;99.90;2.90;98472.00;;;;4629551;30;87181;-60
2022/04/16 10:42:01;;;;;;;2.08;1.88;;;2.50;99.90;2.80;98465.00;;;;4631413;30;87006;-61
2022/04/16 10:44:31;;;;;;;2.35;2.00;;;2.40;99.90;2.90;98458.00;;;;4633003;30;90667;-59
2022/04/16 10:46:59;;;;;;;2.40;1.73;;;2.40;99.90;2.80;98531.00;;;;4638449;30;88672;-60
2022/04/16 10:49:27;;;;;;;3.30;1.60;;;2.40;99.90;2.80;98515.00;;;;4650693;30;86435;-61
2022/04/16 10:51:55;;;;;;;3.55;1.92;;;2.40;99.90;2.70;98491.00;;;;4632714;30;87116;-59
2022/04/16 10:54:36;;;;;;;2.20;2.00;;;2.40;99.90;2.90;98458.00;;;;4630788;30;89387;-57
2022/04/16 10:57:07;;;;;;;2.65;2.15;;;2.50;99.90;2.90;98469.00;;;;4634392;30;88825;-59
2022/04/16 10:59:39;;;;;;;2.38;2.17;;;2.50;99.90;2.90;98520.00;;;;4633850;30;87063;-59
2022/04/16 11:02:26;;;;;;;3.47;2.17;;;2.50;99.90;2.70;98477.00;;;;4643188;30;87135;-58
2022/04/16 11:04:56;;;;;;;2.58;2.35;;;2.40;99.90;2.80;98557.00;;;;4640372;30;88751;-60
2022/04/16 11:07:27;;;;;;;3.72;2.40;;;2.50;99.90;2.80;98499.00;;;;4631625;30;88513;-61
2022/04/16 11:09:54;;;;;;;4.33;2.20;;;2.40;99.90;2.80;98516.00;;;;4641022;30;87367;-58
2022/04/16 11:12:22;;;;;;;6.15;2.78;;;2.40;99.90;2.70;98513.00;;;;4636212;30;87382;-59
2022/04/16 11:14:54;;;;;;;2.05;1.92;;;2.40;99.90;2.70;98501.00;;;;4639490;30;87005;-54
2022/04/16 11:17:21;;;;;;;2.58;2.38;;;2.40;99.90;2.70;98513.00;;;;4632409;30;87836;-56
2022/04/16 11:20:07;;;;;;;2.90;2.25;;;2.30;99.90;2.70;98493.00;;;;4640096;30;87345;-58
2022/04/16 11:22:34;;;;;;;2.45;2.05;;;2.30;99.90;2.70;98478.00;;;;4633727;30;88453;-58
2022/04/16 11:25:06;;;;;;;2.55;2.13;;;2.30;99.90;2.60;98563.00;;;;4646214;30;87809;-56